sensor_id;sensor_type;location;lat;lon;timestamp;P1;durP1;ratioP1;P2;durP2;ratioP2
76425;SDS011;65258;42.680;23.266;2022-12-24T00:01:32;59.50;;;30.70;;
76425;SDS011;65258;42.680;23.266;2022-12-24T00:03:58;59.45;;;28.88;;
76425;SDS011;65258;42.680;23.266;2022-12-24T00:06:23;65.65;;;30.17;;
76425;SDS011;65258;42.680;23.266;2022-12-24T00:08:49;57.42;;;28.73;;
76425;SDS011;65258;42.680;23.266;2022-12-24T00:11:15;55.40;;;27.73;;
76425;SDS011;65258;42.680;23.266;2022-12-24T00:13:41;57.38;;;27.98;;
76425;SDS011;65258;42.680;23.266;2022-12-24T00:16:06;64.55;;;29.27;;
76425;SDS011;65258;42.680;23.266;2022-12-24T00:18:32;56.47;;;28.10;;
76425;SDS011;65258;42.680;23.266;2022-12-24T00:20:57;60.72;;;30.08;;
76425;SDS011;65258;42.680;23.266;2022-12-24T00:23:23;65.80;;;31.92;;
76425;SDS011;65258;42.680;23.266;2022-12-24T00:25:49;62.55;;;28.70;;
76425;SDS011;65258;42.680;23.266;2022-12-24T00:28:14;56.55;;;28.42;;
76425;SDS011;65258;42.680;23.266;2022-12-24T00:30:41;72.90;;;36.38;;
76425;SDS011;65258;42.680;23.266;2022-12-24T00:33:07;56.72;;;27.48;;
76425;SDS011;65258;42.680;23.266;2022-12-24T00:35:34;57.83;;;27.77;;
76425;SDS011;65258;42.680;23.266;2022-12-24T00:38:00;56.45;;;26.98;;
76425;SDS011;65258;42.680;23.266;2022-12-24T00:40:28;56.65;;;26.45;;
76425;SDS011;65258;42.680;23.266;2022-12-24T00:42:54;59.80;;;26.95;;
76425;SDS011;65258;42.680;23.266;2022-12-24T00:45:20;53.88;;;25.77;;
76425;SDS011;65258;42.680;23.266;2022-12-24T00:47:45;59.53;;;25.55;;
76425;SDS011;65258;42.680;23.266;2022-12-24T00:50:11;51.58;;;22.60;;
76425;SDS011;65258;42.680;23.266;2022-12-24T00:52:36;55.47;;;25.88;;
76425;SDS011;65258;42.680;23.266;2022-12-24T00:55:02;46.80;;;23.95;;
76425;SDS011;65258;42.680;23.266;2022-12-24T00:57:28;54.67;;;24.50;;
76425;SDS011;65258;42.680;23.266;2022-12-24T00:59:53;55.15;;;25.33;;
76425;SDS011;65258;42.680;23.266;2022-12-24T01:02:19;51.45;;;23.73;;
76425;SDS011;65258;42.680;23.266;2022-12-24T01:04:46;52.50;;;24.13;;
76425;SDS011;65258;42.680;23.266;2022-12-24T01:07:30;58.08;;;27.30;;
76425;SDS011;65258;42.680;23.266;2022-12-24T01:09:56;49.47;;;22.80;;
76425;SDS011;65258;42.680;23.266;2022-12-24T01:12:21;50.53;;;24.10;;
76425;SDS011;65258;42.680;23.266;2022-12-24T01:14:47;55.50;;;24.45;;
76425;SDS011;65258;42.680;23.266;2022-12-24T01:17:13;44.58;;;22.67;;
76425;SDS011;65258;42.680;23.266;2022-12-24T01:19:38;49.13;;;22.58;;
76425;SDS011;65258;42.680;23.266;2022-12-24T01:22:04;54.00;;;23.38;;
76425;SDS011;65258;42.680;23.266;2022-12-24T01:24:29;53.65;;;23.55;;
76425;SDS011;65258;42.680;23.266;2022-12-24T01:26:55;56.20;;;23.00;;
76425;SDS011;65258;42.680;23.266;2022-12-24T01:29:20;43.88;;;20.23;;
76425;SDS011;65258;42.680;23.266;2022-12-24T01:31:46;50.22;;;21.92;;
76425;SDS011;65258;42.680;23.266;2022-12-24T01:34:11;48.53;;;22.00;;
76425;SDS011;65258;42.680;23.266;2022-12-24T01:36:37;49.00;;;20.98;;
76425;SDS011;65258;42.680;23.266;2022-12-24T01:39:03;54.28;;;23.55;;
76425;SDS011;65258;42.680;23.266;2022-12-24T01:41:29;40.78;;;21.40;;
76425;SDS011;65258;42.680;23.266;2022-12-24T01:44:17;50.47;;;21.15;;
76425;SDS011;65258;42.680;23.266;2022-12-24T01:49:43;37.67;;;19.45;;
76425;SDS011;65258;42.680;23.266;2022-12-24T01:52:16;43.53;;;18.95;;
76425;SDS011;65258;42.680;23.266;2022-12-24T01:54:46;46.65;;;19.80;;
76425;SDS011;65258;42.680;23.266;2022-12-24T01:57:20;38.55;;;17.73;;
76425;SDS011;65258;42.680;23.266;2022-12-24T01:59:51;37.00;;;19.30;;
76425;SDS011;65258;42.680;23.266;2022-12-24T02:02:19;35.25;;;18.42;;
76425;SDS011;65258;42.680;23.266;2022-12-24T02:07:30;39.55;;;18.00;;
76425;SDS011;65258;42.680;23.266;2022-12-24T02:09:57;39.42;;;18.67;;
76425;SDS011;65258;42.680;23.266;2022-12-24T02:12:24;36.97;;;18.25;;
76425;SDS011;65258;42.680;23.266;2022-12-24T02:34:08;30.88;;;14.82;;
76425;SDS011;65258;42.680;23.266;2022-12-24T02:37:03;34.58;;;16.65;;
76425;SDS011;65258;42.680;23.266;2022-12-24T02:39:42;28.08;;;14.73;;
76425;SDS011;65258;42.680;23.266;2022-12-24T02:42:12;31.67;;;15.55;;
76425;SDS011;65258;42.680;23.266;2022-12-24T02:44:49;32.92;;;15.77;;
76425;SDS011;65258;42.680;23.266;2022-12-24T02:47:20;35.72;;;16.35;;
76425;SDS011;65258;42.680;23.266;2022-12-24T02:49:48;30.92;;;15.73;;
76425;SDS011;65258;42.680;23.266;2022-12-24T02:52:26;30.27;;;15.93;;
76425;SDS011;65258;42.680;23.266;2022-12-24T02:54:52;30.40;;;15.15;;
76425;SDS011;65258;42.680;23.266;2022-12-24T02:57:20;30.48;;;15.15;;
76425;SDS011;65258;42.680;23.266;2022-12-24T03:00:07;29.00;;;14.85;;
76425;SDS011;65258;42.680;23.266;2022-12-24T03:02:44;27.20;;;15.35;;
76425;SDS011;65258;42.680;23.266;2022-12-24T03:08:11;32.22;;;14.95;;
76425;SDS011;65258;42.680;23.266;2022-12-24T03:13:18;36.05;;;15.95;;
76425;SDS011;65258;42.680;23.266;2022-12-24T03:15:46;41.03;;;18.58;;
76425;SDS011;65258;42.680;23.266;2022-12-24T03:18:14;37.05;;;19.83;;
76425;SDS011;65258;42.680;23.266;2022-12-24T03:20:43;37.90;;;19.20;;
76425;SDS011;65258;42.680;23.266;2022-12-24T03:23:11;34.45;;;18.55;;
76425;SDS011;65258;42.680;23.266;2022-12-24T03:25:38;38.78;;;20.33;;
76425;SDS011;65258;42.680;23.266;2022-12-24T03:30:31;28.65;;;14.98;;
76425;SDS011;65258;42.680;23.266;2022-12-24T03:32:57;28.02;;;15.43;;
76425;SDS011;65258;42.680;23.266;2022-12-24T03:35:23;34.47;;;16.63;;
76425;SDS011;65258;42.680;23.266;2022-12-24T03:37:48;24.42;;;14.45;;
76425;SDS011;65258;42.680;23.266;2022-12-24T03:40:14;30.25;;;15.55;;
76425;SDS011;65258;42.680;23.266;2022-12-24T03:42:39;25.17;;;15.25;;
76425;SDS011;65258;42.680;23.266;2022-12-24T03:45:05;28.08;;;14.77;;
76425;SDS011;65258;42.680;23.266;2022-12-24T03:47:31;27.15;;;14.27;;
76425;SDS011;65258;42.680;23.266;2022-12-24T03:49:56;30.75;;;16.02;;
76425;SDS011;65258;42.680;23.266;2022-12-24T03:52:22;33.08;;;15.93;;
76425;SDS011;65258;42.680;23.266;2022-12-24T03:54:48;28.92;;;17.30;;
76425;SDS011;65258;42.680;23.266;2022-12-24T03:57:14;32.03;;;17.08;;
76425;SDS011;65258;42.680;23.266;2022-12-24T03:59:39;31.00;;;16.98;;
76425;SDS011;65258;42.680;23.266;2022-12-24T04:02:05;34.63;;;18.33;;
76425;SDS011;65258;42.680;23.266;2022-12-24T04:04:30;39.58;;;19.63;;
76425;SDS011;65258;42.680;23.266;2022-12-24T04:06:57;40.63;;;21.25;;
76425;SDS011;65258;42.680;23.266;2022-12-24T04:09:23;47.65;;;22.00;;
76425;SDS011;65258;42.680;23.266;2022-12-24T04:11:49;40.30;;;19.90;;
76425;SDS011;65258;42.680;23.266;2022-12-24T04:14:14;46.58;;;23.08;;
76425;SDS011;65258;42.680;23.266;2022-12-24T04:16:40;42.90;;;22.95;;
76425;SDS011;65258;42.680;23.266;2022-12-24T04:19:05;40.15;;;20.90;;
76425;SDS011;65258;42.680;23.266;2022-12-24T04:21:31;44.35;;;21.63;;
76425;SDS011;65258;42.680;23.266;2022-12-24T04:23:56;28.48;;;16.80;;
76425;SDS011;65258;42.680;23.266;2022-12-24T04:26:22;37.13;;;18.35;;
76425;SDS011;65258;42.680;23.266;2022-12-24T04:28:47;36.38;;;17.08;;
76425;SDS011;65258;42.680;23.266;2022-12-24T04:31:14;35.92;;;18.40;;
76425;SDS011;65258;42.680;23.266;2022-12-24T04:33:41;37.15;;;18.15;;
76425;SDS011;65258;42.680;23.266;2022-12-24T04:36:07;37.55;;;17.88;;
76425;SDS011;65258;42.680;23.266;2022-12-24T04:38:34;34.75;;;18.58;;
76425;SDS011;65258;42.680;23.266;2022-12-24T04:41:07;35.72;;;19.05;;
76425;SDS011;65258;42.680;23.266;2022-12-24T04:43:36;35.70;;;18.60;;
76425;SDS011;65258;42.680;23.266;2022-12-24T04:46:08;41.65;;;21.73;;
76425;SDS011;65258;42.680;23.266;2022-12-24T04:48:45;40.55;;;20.48;;
76425;SDS011;65258;42.680;23.266;2022-12-24T04:51:11;37.15;;;17.35;;
76425;SDS011;65258;42.680;23.266;2022-12-24T04:53:38;33.30;;;17.02;;
76425;SDS011;65258;42.680;23.266;2022-12-24T04:56:12;31.48;;;15.98;;
76425;SDS011;65258;42.680;23.266;2022-12-24T04:58:39;30.23;;;16.50;;
76425;SDS011;65258;42.680;23.266;2022-12-24T05:01:05;33.70;;;17.08;;
76425;SDS011;65258;42.680;23.266;2022-12-24T05:03:32;34.55;;;18.42;;
76425;SDS011;65258;42.680;23.266;2022-12-24T05:06:04;35.95;;;19.13;;
76425;SDS011;65258;42.680;23.266;2022-12-24T05:10:58;35.70;;;17.73;;
76425;SDS011;65258;42.680;23.266;2022-12-24T05:13:24;39.95;;;18.50;;
76425;SDS011;65258;42.680;23.266;2022-12-24T05:15:51;52.33;;;23.02;;
76425;SDS011;65258;42.680;23.266;2022-12-24T05:18:17;54.53;;;22.40;;
76425;SDS011;65258;42.680;23.266;2022-12-24T05:20:43;43.97;;;20.45;;
76425;SDS011;65258;42.680;23.266;2022-12-24T05:23:10;48.22;;;21.60;;
76425;SDS011;65258;42.680;23.266;2022-12-24T05:25:59;55.20;;;26.40;;
76425;SDS011;65258;42.680;23.266;2022-12-24T05:28:43;58.38;;;25.92;;
76425;SDS011;65258;42.680;23.266;2022-12-24T05:31:09;65.18;;;30.65;;
76425;SDS011;65258;42.680;23.266;2022-12-24T05:33:34;113.35;;;46.38;;
76425;SDS011;65258;42.680;23.266;2022-12-24T05:36:00;145.25;;;59.35;;
76425;SDS011;65258;42.680;23.266;2022-12-24T05:38:25;159.55;;;63.63;;
76425;SDS011;65258;42.680;23.266;2022-12-24T05:40:51;147.30;;;59.15;;
76425;SDS011;65258;42.680;23.266;2022-12-24T05:43:16;87.82;;;39.88;;
76425;SDS011;65258;42.680;23.266;2022-12-24T05:45:42;52.35;;;26.55;;
76425;SDS011;65258;42.680;23.266;2022-12-24T05:48:07;81.80;;;34.78;;
76425;SDS011;65258;42.680;23.266;2022-12-24T05:50:33;55.30;;;26.88;;
76425;SDS011;65258;42.680;23.266;2022-12-24T05:53:03;34.42;;;19.73;;
76425;SDS011;65258;42.680;23.266;2022-12-24T05:55:29;60.58;;;27.70;;
76425;SDS011;65258;42.680;23.266;2022-12-24T05:57:54;52.63;;;23.77;;
76425;SDS011;65258;42.680;23.266;2022-12-24T06:00:20;58.60;;;26.20;;
76425;SDS011;65258;42.680;23.266;2022-12-24T06:02:45;66.47;;;29.83;;
76425;SDS011;65258;42.680;23.266;2022-12-24T06:05:11;69.97;;;29.65;;
76425;SDS011;65258;42.680;23.266;2022-12-24T06:07:36;55.10;;;26.63;;
76425;SDS011;65258;42.680;23.266;2022-12-24T06:10:02;59.10;;;28.42;;
76425;SDS011;65258;42.680;23.266;2022-12-24T06:12:28;58.45;;;28.48;;
76425;SDS011;65258;42.680;23.266;2022-12-24T06:14:53;54.72;;;27.83;;
76425;SDS011;65258;42.680;23.266;2022-12-24T06:17:19;58.53;;;27.35;;
76425;SDS011;65258;42.680;23.266;2022-12-24T06:19:44;48.75;;;23.85;;
76425;SDS011;65258;42.680;23.266;2022-12-24T06:22:10;61.95;;;29.00;;
76425;SDS011;65258;42.680;23.266;2022-12-24T06:24:35;55.72;;;27.80;;
76425;SDS011;65258;42.680;23.266;2022-12-24T06:27:01;59.53;;;27.08;;
76425;SDS011;65258;42.680;23.266;2022-12-24T06:29:26;50.88;;;24.75;;
76425;SDS011;65258;42.680;23.266;2022-12-24T06:31:52;58.28;;;26.80;;
76425;SDS011;65258;42.680;23.266;2022-12-24T06:34:17;47.05;;;22.85;;
76425;SDS011;65258;42.680;23.266;2022-12-24T06:36:43;53.25;;;25.48;;
76425;SDS011;65258;42.680;23.266;2022-12-24T06:39:08;47.40;;;23.48;;
76425;SDS011;65258;42.680;23.266;2022-12-24T06:41:34;54.10;;;25.55;;
76425;SDS011;65258;42.680;23.266;2022-12-24T06:43:59;42.97;;;21.63;;
76425;SDS011;65258;42.680;23.266;2022-12-24T06:46:25;55.53;;;26.20;;
76425;SDS011;65258;42.680;23.266;2022-12-24T06:48:50;47.83;;;25.13;;
76425;SDS011;65258;42.680;23.266;2022-12-24T06:51:16;58.30;;;29.00;;
76425;SDS011;65258;42.680;23.266;2022-12-24T06:53:44;47.83;;;25.52;;
76425;SDS011;65258;42.680;23.266;2022-12-24T06:56:10;54.25;;;26.65;;
76425;SDS011;65258;42.680;23.266;2022-12-24T06:58:37;54.75;;;26.63;;
76425;SDS011;65258;42.680;23.266;2022-12-24T07:01:05;55.78;;;29.48;;
76425;SDS011;65258;42.680;23.266;2022-12-24T07:03:31;59.88;;;29.70;;
76425;SDS011;65258;42.680;23.266;2022-12-24T07:05:57;49.65;;;26.65;;
76425;SDS011;65258;42.680;23.266;2022-12-24T07:08:23;54.85;;;27.40;;
76425;SDS011;65258;42.680;23.266;2022-12-24T07:10:49;48.10;;;25.58;;
76425;SDS011;65258;42.680;23.266;2022-12-24T07:13:16;48.33;;;24.50;;
76425;SDS011;65258;42.680;23.266;2022-12-24T07:15:42;46.83;;;24.90;;
76425;SDS011;65258;42.680;23.266;2022-12-24T07:18:08;44.80;;;26.02;;
76425;SDS011;65258;42.680;23.266;2022-12-24T07:20:33;44.38;;;24.55;;
76425;SDS011;65258;42.680;23.266;2022-12-24T07:22:59;46.05;;;25.33;;
76425;SDS011;65258;42.680;23.266;2022-12-24T07:25:24;47.92;;;27.92;;
76425;SDS011;65258;42.680;23.266;2022-12-24T07:27:50;58.22;;;31.35;;
76425;SDS011;65258;42.680;23.266;2022-12-24T07:30:15;63.28;;;36.95;;
76425;SDS011;65258;42.680;23.266;2022-12-24T07:32:41;69.47;;;37.22;;
76425;SDS011;65258;42.680;23.266;2022-12-24T07:35:07;60.05;;;35.47;;
76425;SDS011;65258;42.680;23.266;2022-12-24T07:37:33;68.03;;;36.30;;
76425;SDS011;65258;42.680;23.266;2022-12-24T07:39:58;74.53;;;41.83;;
76425;SDS011;65258;42.680;23.266;2022-12-24T07:42:24;116.28;;;59.58;;
76425;SDS011;65258;42.680;23.266;2022-12-24T07:44:49;86.72;;;47.40;;
76425;SDS011;65258;42.680;23.266;2022-12-24T07:47:15;94.85;;;50.65;;
76425;SDS011;65258;42.680;23.266;2022-12-24T07:49:40;72.00;;;41.85;;
76425;SDS011;65258;42.680;23.266;2022-12-24T07:52:06;74.78;;;41.53;;
76425;SDS011;65258;42.680;23.266;2022-12-24T07:54:32;61.10;;;33.45;;
76425;SDS011;65258;42.680;23.266;2022-12-24T07:56:57;53.95;;;30.02;;
76425;SDS011;65258;42.680;23.266;2022-12-24T07:59:23;58.20;;;32.13;;
76425;SDS011;65258;42.680;23.266;2022-12-24T08:01:48;47.80;;;28.60;;
76425;SDS011;65258;42.680;23.266;2022-12-24T08:04:14;53.97;;;30.63;;
76425;SDS011;65258;42.680;23.266;2022-12-24T08:06:39;47.80;;;27.60;;
76425;SDS011;65258;42.680;23.266;2022-12-24T08:09:05;47.33;;;28.60;;
76425;SDS011;65258;42.680;23.266;2022-12-24T08:11:30;47.65;;;27.95;;
76425;SDS011;65258;42.680;23.266;2022-12-24T08:13:56;47.13;;;25.92;;
76425;SDS011;65258;42.680;23.266;2022-12-24T08:16:22;48.30;;;28.42;;
76425;SDS011;65258;42.680;23.266;2022-12-24T08:18:47;48.20;;;29.33;;
76425;SDS011;65258;42.680;23.266;2022-12-24T08:21:13;58.35;;;31.70;;
76425;SDS011;65258;42.680;23.266;2022-12-24T08:23:38;58.22;;;31.10;;
76425;SDS011;65258;42.680;23.266;2022-12-24T08:26:07;51.38;;;29.52;;
76425;SDS011;65258;42.680;23.266;2022-12-24T08:28:34;57.25;;;29.40;;
76425;SDS011;65258;42.680;23.266;2022-12-24T08:31:01;64.13;;;35.63;;
76425;SDS011;65258;42.680;23.266;2022-12-24T08:33:26;60.35;;;32.55;;
76425;SDS011;65258;42.680;23.266;2022-12-24T08:35:52;63.40;;;34.50;;
76425;SDS011;65258;42.680;23.266;2022-12-24T08:38:19;63.53;;;33.13;;
76425;SDS011;65258;42.680;23.266;2022-12-24T08:40:45;72.22;;;36.78;;
76425;SDS011;65258;42.680;23.266;2022-12-24T08:43:14;57.30;;;30.38;;
76425;SDS011;65258;42.680;23.266;2022-12-24T08:45:41;57.45;;;29.65;;
76425;SDS011;65258;42.680;23.266;2022-12-24T08:48:07;47.03;;;28.02;;
76425;SDS011;65258;42.680;23.266;2022-12-24T08:50:34;52.03;;;28.17;;
76425;SDS011;65258;42.680;23.266;2022-12-24T08:53:02;51.38;;;28.33;;
76425;SDS011;65258;42.680;23.266;2022-12-24T08:55:27;54.03;;;28.92;;
76425;SDS011;65258;42.680;23.266;2022-12-24T08:57:53;50.58;;;28.90;;
76425;SDS011;65258;42.680;23.266;2022-12-24T09:00:18;55.95;;;29.48;;
76425;SDS011;65258;42.680;23.266;2022-12-24T09:02:44;51.05;;;29.00;;
76425;SDS011;65258;42.680;23.266;2022-12-24T09:05:09;51.80;;;28.48;;
76425;SDS011;65258;42.680;23.266;2022-12-24T09:07:35;55.28;;;30.95;;
76425;SDS011;65258;42.680;23.266;2022-12-24T09:10:01;127.75;;;66.80;;
76425;SDS011;65258;42.680;23.266;2022-12-24T09:12:26;58.22;;;32.67;;
76425;SDS011;65258;42.680;23.266;2022-12-24T09:14:52;44.47;;;24.80;;
76425;SDS011;65258;42.680;23.266;2022-12-24T09:17:18;45.47;;;26.83;;
76425;SDS011;65258;42.680;23.266;2022-12-24T09:19:44;42.25;;;24.48;;
76425;SDS011;65258;42.680;23.266;2022-12-24T09:22:11;45.53;;;26.42;;
76425;SDS011;65258;42.680;23.266;2022-12-24T09:24:38;47.28;;;26.92;;
76425;SDS011;65258;42.680;23.266;2022-12-24T09:27:03;43.45;;;24.92;;
76425;SDS011;65258;42.680;23.266;2022-12-24T09:29:29;42.00;;;24.50;;
76425;SDS011;65258;42.680;23.266;2022-12-24T09:31:55;44.60;;;24.00;;
76425;SDS011;65258;42.680;23.266;2022-12-24T09:34:22;46.80;;;25.17;;
76425;SDS011;65258;42.680;23.266;2022-12-24T09:36:48;45.58;;;25.27;;
76425;SDS011;65258;42.680;23.266;2022-12-24T09:39:14;42.05;;;24.42;;
76425;SDS011;65258;42.680;23.266;2022-12-24T09:48:08;38.47;;;22.25;;
76425;SDS011;65258;42.680;23.266;2022-12-24T09:53:02;41.03;;;23.02;;
76425;SDS011;65258;42.680;23.266;2022-12-24T09:55:36;46.55;;;26.50;;
76425;SDS011;65258;42.680;23.266;2022-12-24T10:01:11;40.90;;;22.42;;
76425;SDS011;65258;42.680;23.266;2022-12-24T10:03:37;53.90;;;29.42;;
76425;SDS011;65258;42.680;23.266;2022-12-24T10:06:05;53.22;;;28.00;;
76425;SDS011;65258;42.680;23.266;2022-12-24T10:08:40;51.92;;;29.80;;
76425;SDS011;65258;42.680;23.266;2022-12-24T10:11:15;62.35;;;34.72;;
76425;SDS011;65258;42.680;23.266;2022-12-24T10:19:23;81.20;;;45.63;;
76425;SDS011;65258;42.680;23.266;2022-12-24T10:24:42;84.70;;;47.15;;
76425;SDS011;65258;42.680;23.266;2022-12-24T10:27:20;73.47;;;46.25;;
76425;SDS011;65258;42.680;23.266;2022-12-24T10:29:52;77.57;;;44.50;;
76425;SDS011;65258;42.680;23.266;2022-12-24T10:32:27;83.47;;;44.55;;
76425;SDS011;65258;42.680;23.266;2022-12-24T10:34:59;74.20;;;43.92;;
76425;SDS011;65258;42.680;23.266;2022-12-24T10:37:32;75.13;;;42.03;;
76425;SDS011;65258;42.680;23.266;2022-12-24T10:39:58;77.75;;;43.95;;
76425;SDS011;65258;42.680;23.266;2022-12-24T10:42:45;78.45;;;44.60;;
76425;SDS011;65258;42.680;23.266;2022-12-24T10:45:14;72.82;;;42.25;;
76425;SDS011;65258;42.680;23.266;2022-12-24T10:47:41;71.43;;;41.55;;
76425;SDS011;65258;42.680;23.266;2022-12-24T10:50:14;70.10;;;39.53;;
76425;SDS011;65258;42.680;23.266;2022-12-24T10:52:48;71.95;;;41.45;;
76425;SDS011;65258;42.680;23.266;2022-12-24T10:57:43;71.13;;;39.40;;
76425;SDS011;65258;42.680;23.266;2022-12-24T11:00:17;67.90;;;38.70;;
76425;SDS011;65258;42.680;23.266;2022-12-24T11:02:45;72.03;;;40.45;;
76425;SDS011;65258;42.680;23.266;2022-12-24T11:05:29;74.47;;;41.70;;
76425;SDS011;65258;42.680;23.266;2022-12-24T11:08:00;75.03;;;42.03;;
76425;SDS011;65258;42.680;23.266;2022-12-24T11:10:26;69.68;;;39.40;;
76425;SDS011;65258;42.680;23.266;2022-12-24T11:12:52;74.63;;;41.20;;
76425;SDS011;65258;42.680;23.266;2022-12-24T11:15:19;72.72;;;41.10;;
76425;SDS011;65258;42.680;23.266;2022-12-24T11:17:52;164.27;;;80.40;;
76425;SDS011;65258;42.680;23.266;2022-12-24T11:20:21;120.97;;;63.55;;
76425;SDS011;65258;42.680;23.266;2022-12-24T11:22:50;74.55;;;43.63;;
76425;SDS011;65258;42.680;23.266;2022-12-24T11:27:56;79.38;;;41.67;;
76425;SDS011;65258;42.680;23.266;2022-12-24T11:30:34;72.70;;;40.78;;
76425;SDS011;65258;42.680;23.266;2022-12-24T11:35:26;66.78;;;38.58;;
76425;SDS011;65258;42.680;23.266;2022-12-24T11:40:33;61.42;;;35.33;;
76425;SDS011;65258;42.680;23.266;2022-12-24T11:43:01;59.78;;;35.17;;
76425;SDS011;65258;42.680;23.266;2022-12-24T11:45:29;63.40;;;36.83;;
76425;SDS011;65258;42.680;23.266;2022-12-24T11:52:51;78.22;;;45.28;;
76425;SDS011;65258;42.680;23.266;2022-12-24T12:03:55;79.88;;;46.72;;
76425;SDS011;65258;42.680;23.266;2022-12-24T12:06:38;76.00;;;46.30;;
76425;SDS011;65258;42.680;23.266;2022-12-24T12:09:18;102.45;;;59.22;;
76425;SDS011;65258;42.680;23.266;2022-12-24T12:11:51;92.75;;;53.00;;
76425;SDS011;65258;42.680;23.266;2022-12-24T12:14:29;81.88;;;47.72;;
76425;SDS011;65258;42.680;23.266;2022-12-24T12:17:11;76.50;;;45.00;;
76425;SDS011;65258;42.680;23.266;2022-12-24T12:19:41;79.63;;;46.28;;
76425;SDS011;65258;42.680;23.266;2022-12-24T12:22:16;79.00;;;46.65;;
76425;SDS011;65258;42.680;23.266;2022-12-24T12:25:02;76.60;;;47.15;;
76425;SDS011;65258;42.680;23.266;2022-12-24T12:27:36;76.32;;;47.20;;
76425;SDS011;65258;42.680;23.266;2022-12-24T12:30:17;75.35;;;45.85;;
76425;SDS011;65258;42.680;23.266;2022-12-24T12:32:47;66.00;;;38.85;;
76425;SDS011;65258;42.680;23.266;2022-12-24T12:38:01;66.10;;;40.33;;
76425;SDS011;65258;42.680;23.266;2022-12-24T12:40:52;62.33;;;40.00;;
76425;SDS011;65258;42.680;23.266;2022-12-24T12:48:42;79.50;;;47.63;;
76425;SDS011;65258;42.680;23.266;2022-12-24T12:51:30;84.95;;;48.33;;
76425;SDS011;65258;42.680;23.266;2022-12-24T12:57:04;75.63;;;45.10;;
76425;SDS011;65258;42.680;23.266;2022-12-24T12:59:34;82.15;;;49.30;;
76425;SDS011;65258;42.680;23.266;2022-12-24T13:21:20;55.33;;;29.70;;
76425;SDS011;65258;42.680;23.266;2022-12-24T13:23:47;50.55;;;28.70;;
76425;SDS011;65258;42.680;23.266;2022-12-24T13:26:14;54.28;;;32.20;;
76425;SDS011;65258;42.680;23.266;2022-12-24T13:28:40;64.30;;;33.85;;
76425;SDS011;65258;42.680;23.266;2022-12-24T13:36:09;69.30;;;38.00;;
76425;SDS011;65258;42.680;23.266;2022-12-24T13:49:36;70.45;;;39.80;;
76425;SDS011;65258;42.680;23.266;2022-12-24T13:59:52;77.70;;;43.13;;
76425;SDS011;65258;42.680;23.266;2022-12-24T14:02:23;84.18;;;50.88;;
76425;SDS011;65258;42.680;23.266;2022-12-24T14:04:51;87.63;;;50.80;;
76425;SDS011;65258;42.680;23.266;2022-12-24T14:07:17;91.82;;;51.17;;
76425;SDS011;65258;42.680;23.266;2022-12-24T14:09:47;97.18;;;56.20;;
76425;SDS011;65258;42.680;23.266;2022-12-24T14:12:15;104.97;;;58.63;;
76425;SDS011;65258;42.680;23.266;2022-12-24T14:14:57;98.28;;;56.75;;
76425;SDS011;65258;42.680;23.266;2022-12-24T14:17:26;95.95;;;58.53;;
76425;SDS011;65258;42.680;23.266;2022-12-24T14:19:54;99.10;;;58.95;;
76425;SDS011;65258;42.680;23.266;2022-12-24T14:22:55;95.13;;;57.40;;
76425;SDS011;65258;42.680;23.266;2022-12-24T14:25:18;107.10;;;58.33;;
76425;SDS011;65258;42.680;23.266;2022-12-24T14:27:50;101.70;;;60.05;;
76425;SDS011;65258;42.680;23.266;2022-12-24T14:30:23;98.00;;;58.08;;
76425;SDS011;65258;42.680;23.266;2022-12-24T14:32:50;99.53;;;57.50;;
76425;SDS011;65258;42.680;23.266;2022-12-24T14:35:18;64.75;;;36.33;;
76425;SDS011;65258;42.680;23.266;2022-12-24T14:37:45;32.72;;;19.33;;
76425;SDS011;65258;42.680;23.266;2022-12-24T14:40:21;26.98;;;15.45;;
76425;SDS011;65258;42.680;23.266;2022-12-24T14:42:53;21.20;;;13.02;;
76425;SDS011;65258;42.680;23.266;2022-12-24T14:45:24;20.65;;;13.52;;
76425;SDS011;65258;42.680;23.266;2022-12-24T14:48:12;20.85;;;11.93;;
76425;SDS011;65258;42.680;23.266;2022-12-24T14:50:52;19.85;;;10.80;;
76425;SDS011;65258;42.680;23.266;2022-12-24T14:55:58;16.98;;;9.40;;
76425;SDS011;65258;42.680;23.266;2022-12-24T14:58:37;17.45;;;9.65;;
76425;SDS011;65258;42.680;23.266;2022-12-24T15:01:19;15.15;;;9.05;;
76425;SDS011;65258;42.680;23.266;2022-12-24T15:03:45;17.73;;;9.75;;
76425;SDS011;65258;42.680;23.266;2022-12-24T15:06:11;16.33;;;8.95;;
76425;SDS011;65258;42.680;23.266;2022-12-24T15:11:15;16.77;;;8.25;;
76425;SDS011;65258;42.680;23.266;2022-12-24T15:13:44;17.08;;;8.82;;
76425;SDS011;65258;42.680;23.266;2022-12-24T15:16:17;18.05;;;9.65;;
76425;SDS011;65258;42.680;23.266;2022-12-24T15:18:48;12.75;;;7.75;;
76425;SDS011;65258;42.680;23.266;2022-12-24T15:21:30;11.00;;;6.95;;
76425;SDS011;65258;42.680;23.266;2022-12-24T15:23:57;11.50;;;6.95;;
76425;SDS011;65258;42.680;23.266;2022-12-24T15:28:54;10.70;;;6.93;;
76425;SDS011;65258;42.680;23.266;2022-12-24T15:31:22;13.00;;;8.13;;
76425;SDS011;65258;42.680;23.266;2022-12-24T15:37:14;10.02;;;6.28;;
76425;SDS011;65258;42.680;23.266;2022-12-24T15:39:43;11.63;;;6.47;;
76425;SDS011;65258;42.680;23.266;2022-12-24T15:42:17;10.45;;;6.50;;
76425;SDS011;65258;42.680;23.266;2022-12-24T15:47:24;10.70;;;7.18;;
76425;SDS011;65258;42.680;23.266;2022-12-24T15:49:52;11.23;;;6.82;;
76425;SDS011;65258;42.680;23.266;2022-12-24T15:52:19;11.60;;;7.05;;
76425;SDS011;65258;42.680;23.266;2022-12-24T15:54:48;11.73;;;6.30;;
76425;SDS011;65258;42.680;23.266;2022-12-24T15:59:57;9.68;;;6.57;;
76425;SDS011;65258;42.680;23.266;2022-12-24T16:02:30;16.17;;;7.18;;
76425;SDS011;65258;42.680;23.266;2022-12-24T16:16:18;11.30;;;7.82;;
76425;SDS011;65258;42.680;23.266;2022-12-24T16:18:53;13.95;;;9.07;;
76425;SDS011;65258;42.680;23.266;2022-12-24T16:23:53;18.80;;;10.52;;
76425;SDS011;65258;42.680;23.266;2022-12-24T16:26:20;19.25;;;10.57;;
76425;SDS011;65258;42.680;23.266;2022-12-24T16:28:46;20.95;;;11.65;;
76425;SDS011;65258;42.680;23.266;2022-12-24T16:31:58;17.67;;;10.88;;
76425;SDS011;65258;42.680;23.266;2022-12-24T16:34:01;14.38;;;7.95;;
76425;SDS011;65258;42.680;23.266;2022-12-24T16:36:28;16.85;;;10.02;;
76425;SDS011;65258;42.680;23.266;2022-12-24T16:38:55;14.68;;;9.18;;
76425;SDS011;65258;42.680;23.266;2022-12-24T16:41:40;13.68;;;8.82;;
76425;SDS011;65258;42.680;23.266;2022-12-24T16:44:24;13.73;;;8.93;;
76425;SDS011;65258;42.680;23.266;2022-12-24T16:46:51;13.05;;;8.13;;
76425;SDS011;65258;42.680;23.266;2022-12-24T16:51:44;17.63;;;9.02;;
76425;SDS011;65258;42.680;23.266;2022-12-24T16:54:10;13.13;;;8.18;;
76425;SDS011;65258;42.680;23.266;2022-12-24T16:56:37;14.10;;;8.90;;
76425;SDS011;65258;42.680;23.266;2022-12-24T16:59:03;16.02;;;9.38;;
76425;SDS011;65258;42.680;23.266;2022-12-24T17:01:29;17.25;;;8.63;;
76425;SDS011;65258;42.680;23.266;2022-12-24T17:03:54;18.85;;;11.15;;